Terminal Aerodrome Forecast
Issued by NWS Milwaukee/Sullivan, WI

Home | Current Version | Previous Version | Text Only | Print | Product List | Glossary On
Versions: 1 2 3 4 5 6 7 8 9 10 11 12 13 14 15 16 17 18 19 20 21 22 23 24 25 26 27 28 29
000
FTUS43 KMKX 052345
TAFMSN
TAF
KMSN 052345Z 0600/0624 18009KT P6SM FEW250
     FM061600 19013G21KT P6SM SCT150
     FM061800 20015G22KT P6SM BKN090
     FM062100 19015G24KT 6SM -TSRA SCT035CB BKN090=

USA.gov is the U.S. government's official web portal to all federal, state and local government web resources and services.